createdAt,value
2022-12-20T00:00:11.386Z,39.08
2022-12-20T00:03:14.894Z,32.95
2022-12-20T00:06:20.324Z,39.85
2022-12-20T00:09:25.326Z,36.60
2022-12-20T00:12:28.918Z,37.35
2022-12-20T00:15:32.144Z,37.50
2022-12-20T00:18:35.787Z,43.10
2022-12-20T00:21:40.367Z,35.42
2022-12-20T00:24:43.609Z,35.15
2022-12-20T00:27:46.897Z,31.73
2022-12-20T00:30:55.096Z,36.50
2022-12-20T00:34:00.181Z,32.35
2022-12-20T00:37:05.117Z,36.03
2022-12-20T00:40:09.700Z,30.95
2022-12-20T00:43:12.997Z,35.10
2022-12-20T00:46:18.181Z,36.85
2022-12-20T00:49:21.698Z,32.85
2022-12-20T00:52:26.480Z,34.85
2022-12-20T00:55:29.746Z,34.85
2022-12-20T00:58:34.459Z,37.15
2022-12-20T01:01:38.081Z,36.47
2022-12-20T01:04:41.794Z,32.60
2022-12-20T01:07:46.593Z,30.10
2022-12-20T01:11:00.569Z,33.85
2022-12-20T01:14:06.920Z,31.83
2022-12-20T01:17:11.127Z,35.05
2022-12-20T01:20:15.203Z,34.72
2022-12-20T01:23:20.069Z,31.80
2022-12-20T01:26:24.853Z,30.40
2022-12-20T01:29:28.164Z,32.45
2022-12-20T01:32:31.571Z,34.78
2022-12-20T01:35:35.039Z,31.40
2022-12-20T01:38:39.825Z,33.78
2022-12-20T01:41:44.995Z,35.90
2022-12-20T01:45:00.178Z,28.60
2022-12-20T01:48:03.620Z,31.08
2022-12-20T01:51:07.557Z,32.08
2022-12-20T01:54:16.383Z,30.10
2022-12-20T01:57:26.282Z,33.92
2022-12-20T02:04:01.559Z,37.53
2022-12-20T02:07:09.670Z,32.13
2022-12-20T02:10:14.611Z,22.85
2022-12-20T02:13:26.052Z,41.95
2022-12-20T02:16:33.266Z,32.15
2022-12-20T02:20:01.742Z,33.45
2022-12-20T02:23:29.744Z,33.05
2022-12-20T02:27:07.437Z,35.35
2022-12-20T02:30:18.696Z,32.20
2022-12-20T02:33:23.179Z,28.70
2022-12-20T02:36:26.553Z,33.88
2022-12-20T02:39:32.209Z,32.10
2022-12-20T02:42:35.988Z,28.02
2022-12-20T02:45:39.775Z,31.35
2022-12-20T02:48:43.781Z,32.47
2022-12-20T02:51:50.444Z,36.88
2022-12-20T02:54:54.349Z,35.97
2022-12-20T02:58:02.743Z,35.20
2022-12-20T03:01:17.783Z,33.00
2022-12-20T03:04:27.047Z,36.53
2022-12-20T03:07:31.203Z,39.08
2022-12-20T03:10:34.985Z,38.50
2022-12-20T03:13:38.517Z,36.90
2022-12-20T03:16:46.379Z,30.60
2022-12-20T03:19:49.800Z,42.42
2022-12-20T03:22:53.046Z,33.00
2022-12-20T03:25:56.921Z,37.55
2022-12-20T03:29:29.375Z,29.08
2022-12-20T03:32:34.063Z,33.08
2022-12-20T03:35:37.376Z,33.58
2022-12-20T03:38:40.537Z,31.52
2022-12-20T03:41:44.824Z,32.75
2022-12-20T03:44:53.684Z,27.45
2022-12-20T03:47:58.316Z,36.10
2022-12-20T03:51:04.045Z,31.38
2022-12-20T03:54:07.418Z,37.83
2022-12-20T03:57:30.486Z,31.48
2022-12-20T04:00:34.745Z,38.17
2022-12-20T04:04:02.370Z,35.05
2022-12-20T04:07:05.653Z,36.35
2022-12-20T04:10:10.672Z,33.47
2022-12-20T04:13:14.006Z,32.63
2022-12-20T04:16:22.027Z,32.20
2022-12-20T04:19:26.865Z,33.75
2022-12-20T04:22:30.468Z,36.85
2022-12-20T04:25:39.736Z,37.00
2022-12-20T04:28:43.895Z,29.10
2022-12-20T04:31:47.847Z,39.58
2022-12-20T04:34:52.733Z,39.75
2022-12-20T04:37:56.560Z,27.13
2022-12-20T04:41:00.884Z,34.15
2022-12-20T04:44:11.203Z,34.50
2022-12-20T04:47:15.092Z,33.42
2022-12-20T04:50:19.863Z,35.08
2022-12-20T04:53:41.976Z,32.50
2022-12-20T04:56:46.101Z,33.92
2022-12-20T04:59:54.577Z,30.00
2022-12-20T05:02:57.955Z,35.05
2022-12-20T05:06:04.263Z,36.47
2022-12-20T05:09:07.650Z,27.63
2022-12-20T05:12:11.317Z,32.05
2022-12-20T05:15:14.840Z,31.55
2022-12-20T05:18:19.285Z,31.45
2022-12-20T05:21:52.721Z,28.05
2022-12-20T05:25:24.710Z,32.17
2022-12-20T05:28:31.155Z,35.25
2022-12-20T05:31:34.548Z,34.33
2022-12-20T05:34:38.412Z,30.55
2022-12-20T05:37:43.311Z,35.20
2022-12-20T05:40:53.283Z,27.00
2022-12-20T05:43:56.694Z,37.33
2022-12-20T05:47:01.809Z,30.48
2022-12-20T05:50:12.303Z,23.38
2022-12-20T05:53:41.539Z,38.70
2022-12-20T05:56:44.852Z,32.45
2022-12-20T05:59:49.466Z,33.80
2022-12-20T06:02:55.769Z,34.80
2022-12-20T06:05:59.888Z,38.60
2022-12-20T06:09:07.977Z,55.05
2022-12-20T06:12:18.804Z,40.45
2022-12-20T06:15:23.511Z,37.05
2022-12-20T06:18:27.444Z,38.58
2022-12-20T06:21:35.164Z,39.80
2022-12-20T06:24:48.827Z,42.35
2022-12-20T06:27:59.143Z,51.28
2022-12-20T06:34:40.546Z,34.08
2022-12-20T06:37:47.761Z,35.33
2022-12-20T06:40:53.539Z,35.75
2022-12-20T06:44:00.912Z,35.15
2022-12-20T06:47:08.573Z,32.92
2022-12-20T06:50:13.267Z,33.83
2022-12-20T06:53:19.588Z,44.58
2022-12-20T06:56:24.805Z,37.50
2022-12-20T06:59:31.710Z,37.85
2022-12-20T07:02:35.735Z,40.38
2022-12-20T07:05:39.607Z,38.80
2022-12-20T07:08:45.509Z,43.40
2022-12-20T07:11:50.977Z,35.80
2022-12-20T07:15:18.868Z,36.03
2022-12-20T07:18:22.300Z,35.22
2022-12-20T07:21:25.359Z,39.45
2022-12-20T07:24:29.284Z,33.45
2022-12-20T07:27:34.908Z,38.85
2022-12-20T07:30:38.771Z,34.17
2022-12-20T07:33:41.927Z,41.65
2022-12-20T07:36:45.289Z,38.53
2022-12-20T07:39:48.598Z,37.85
2022-12-20T07:42:53.294Z,36.35
2022-12-20T07:45:57.492Z,37.22
2022-12-20T07:49:00.722Z,39.17
2022-12-20T07:52:05.810Z,31.38
2022-12-20T07:55:10.318Z,36.50
2022-12-20T07:58:16.612Z,36.22
2022-12-20T08:01:21.485Z,38.50
2022-12-20T08:04:28.141Z,33.85
2022-12-20T08:07:32.546Z,36.10
2022-12-20T08:10:36.340Z,37.47
2022-12-20T08:13:46.191Z,32.55
2022-12-20T08:16:50.788Z,39.10
2022-12-20T08:19:54.104Z,36.72
2022-12-20T08:23:00.446Z,38.60
2022-12-20T08:26:04.051Z,34.58
2022-12-20T08:29:09.731Z,38.67
2022-12-20T08:32:14.165Z,40.45
2022-12-20T08:35:17.467Z,33.35
2022-12-20T08:38:20.695Z,33.30
2022-12-20T08:41:24.129Z,33.50
2022-12-20T08:44:29.286Z,37.75
2022-12-20T08:47:32.542Z,36.00
2022-12-20T08:50:36.331Z,32.53
2022-12-20T08:53:40.563Z,35.03
2022-12-20T08:56:43.772Z,42.90
2022-12-20T08:59:48.385Z,37.83
2022-12-20T09:02:52.039Z,34.53
2022-12-20T09:05:55.392Z,35.03
2022-12-20T09:09:00.345Z,36.22
2022-12-20T09:12:03.549Z,33.58
2022-12-20T09:15:09.534Z,33.40
2022-12-20T09:18:13.239Z,31.92
2022-12-20T09:21:17.021Z,33.92
2022-12-20T09:24:20.837Z,35.05
2022-12-20T09:27:24.393Z,35.00
2022-12-20T09:30:29.003Z,36.63
2022-12-20T09:33:34.702Z,34.17
2022-12-20T09:36:38.300Z,34.78
2022-12-20T09:39:41.684Z,39.25
2022-12-20T09:42:45.161Z,35.47
2022-12-20T09:45:54.102Z,39.42
2022-12-20T09:48:58.350Z,36.25
2022-12-20T09:52:20.441Z,32.20
2022-12-20T09:55:32.799Z,37.60
2022-12-20T09:58:50.401Z,38.53
2022-12-20T10:01:55.251Z,39.13
2022-12-20T10:04:58.839Z,36.63
2022-12-20T10:08:07.458Z,41.20
2022-12-20T10:11:18.100Z,35.38
2022-12-20T10:14:34.404Z,40.65
2022-12-20T10:17:51.047Z,40.38
2022-12-20T10:21:01.747Z,42.55
2022-12-20T10:24:09.902Z,56.75
2022-12-20T10:27:15.890Z,43.97
2022-12-20T10:30:22.277Z,30.25
2022-12-20T10:33:31.304Z,38.38
2022-12-20T10:36:36.553Z,40.28
2022-12-20T10:39:44.106Z,35.00
2022-12-20T10:42:47.481Z,37.78
2022-12-20T10:45:58.811Z,40.63
2022-12-20T10:49:23.704Z,35.75
2022-12-20T10:52:27.234Z,35.30
2022-12-20T10:55:38.632Z,49.58
2022-12-20T10:58:42.375Z,43.85
2022-12-20T11:01:48.448Z,33.22
2022-12-20T11:05:06.327Z,37.65
2022-12-20T11:11:39.836Z,35.80
2022-12-20T11:14:44.616Z,36.13
2022-12-20T11:17:50.203Z,36.13
2022-12-20T11:21:04.225Z,35.95
2022-12-20T11:24:14.296Z,37.08
2022-12-20T11:27:26.461Z,40.75
2022-12-20T11:30:36.312Z,38.47
2022-12-20T11:34:04.688Z,37.63
2022-12-20T11:37:20.208Z,34.40
2022-12-20T11:40:32.061Z,45.08
2022-12-20T11:44:27.642Z,45.20
2022-12-20T11:47:50.063Z,38.10
2022-12-20T11:51:04.087Z,39.40
2022-12-20T11:54:14.595Z,38.20
2022-12-20T11:57:22.791Z,38.50
2022-12-20T12:00:26.759Z,38.40
2022-12-20T12:03:34.840Z,43.15
2022-12-20T12:06:43.574Z,36.15
2022-12-20T12:09:54.924Z,36.90
2022-12-20T12:13:05.019Z,36.65
2022-12-20T12:16:12.254Z,38.10
2022-12-20T12:19:16.076Z,37.00
2022-12-20T12:22:25.838Z,39.38
2022-12-20T12:25:30.394Z,46.10
2022-12-20T12:28:36.280Z,40.47
2022-12-20T12:31:44.222Z,47.17
2022-12-20T12:35:00.104Z,38.72
2022-12-20T12:38:22.710Z,44.08
2022-12-20T12:41:50.814Z,49.22
2022-12-20T12:44:58.622Z,42.72
2022-12-20T12:48:07.523Z,47.63
2022-12-20T12:51:12.400Z,42.60
2022-12-20T12:54:20.342Z,42.30
2022-12-20T12:57:24.847Z,48.50
2022-12-20T13:00:50.443Z,44.38
2022-12-20T13:04:27.567Z,48.80
2022-12-20T13:07:43.741Z,46.35
2022-12-20T13:11:04.043Z,47.10
2022-12-20T13:14:50.119Z,48.47
2022-12-20T13:17:55.187Z,47.17
2022-12-20T13:21:35.328Z,47.17
2022-12-20T13:24:53.135Z,47.80
2022-12-20T13:28:34.726Z,49.08
2022-12-20T13:31:39.431Z,46.65
2022-12-20T13:34:55.553Z,50.45
2022-12-20T13:38:02.287Z,76.78
2022-12-20T13:41:14.048Z,54.25
2022-12-20T13:44:41.583Z,50.92
2022-12-20T13:47:51.325Z,53.40
2022-12-20T13:50:55.819Z,54.50
2022-12-20T13:54:01.311Z,53.17
2022-12-20T13:57:07.990Z,54.53
2022-12-20T14:00:17.481Z,46.58
2022-12-20T14:03:27.642Z,43.47
2022-12-20T14:06:30.881Z,51.92
2022-12-20T14:09:39.344Z,54.22
2022-12-20T14:12:47.288Z,52.10
2022-12-20T14:15:53.963Z,47.08
2022-12-20T14:19:06.074Z,50.15
2022-12-20T14:22:12.250Z,49.92
2022-12-20T14:25:19.297Z,48.40
2022-12-20T14:28:32.283Z,50.88
2022-12-20T14:31:41.203Z,52.03
2022-12-20T14:34:46.074Z,56.45
2022-12-20T14:37:55.123Z,68.57
2022-12-20T14:40:58.507Z,79.28
2022-12-20T14:44:07.026Z,62.03
2022-12-20T14:47:17.021Z,136.00
2022-12-20T14:50:26.846Z,173.93
2022-12-20T14:53:30.231Z,72.53
2022-12-20T14:56:33.784Z,77.60
2022-12-20T14:59:37.364Z,62.65
2022-12-20T15:02:43.680Z,55.25
2022-12-20T15:05:51.315Z,60.58
2022-12-20T15:08:54.956Z,62.78
2022-12-20T15:12:00.383Z,63.55
2022-12-20T15:15:27.647Z,58.75
2022-12-20T15:18:27.264Z,62.47
2022-12-20T15:21:34.090Z,65.88
2022-12-20T15:24:37.403Z,63.67
2022-12-20T15:27:40.796Z,60.35
2022-12-20T15:30:44.475Z,63.40
2022-12-20T15:33:48.172Z,55.85
2022-12-20T15:36:55.674Z,56.80
2022-12-20T15:39:59.653Z,53.50
2022-12-20T15:43:02.968Z,60.88
2022-12-20T15:46:07.849Z,73.68
2022-12-20T15:49:18.293Z,67.25
2022-12-20T15:52:24.697Z,63.67
2022-12-20T15:55:27.954Z,74.55
2022-12-20T15:58:31.295Z,72.57
2022-12-20T16:01:42.169Z,66.18
2022-12-20T16:04:45.888Z,65.35
2022-12-20T16:07:50.734Z,82.75
2022-12-20T16:10:54.548Z,77.55
2022-12-20T16:13:59.067Z,80.97
2022-12-20T16:17:02.565Z,70.97
2022-12-20T16:20:07.310Z,77.07
2022-12-20T16:23:25.279Z,74.80
2022-12-20T16:26:37.343Z,74.15
2022-12-20T16:29:45.797Z,73.78
2022-12-20T16:32:49.820Z,67.20
2022-12-20T16:35:53.330Z,63.63
2022-12-20T16:38:58.293Z,65.18
2022-12-20T16:42:03.132Z,63.35
2022-12-20T16:45:08.103Z,79.32
2022-12-20T16:48:12.478Z,79.60
2022-12-20T16:51:26.716Z,86.47
2022-12-20T16:54:34.691Z,84.30
2022-12-20T16:57:38.963Z,82.70
2022-12-20T17:00:42.417Z,64.05
2022-12-20T17:03:46.648Z,56.95
2022-12-20T17:06:50.772Z,61.22
2022-12-20T17:10:10.954Z,64.97
2022-12-20T17:13:14.868Z,75.15
2022-12-20T17:16:18.723Z,58.38
2022-12-20T17:19:22.580Z,76.10
2022-12-20T17:22:25.866Z,72.75
2022-12-20T17:25:33.791Z,128.05
2022-12-20T17:28:37.354Z,114.43
2022-12-20T17:31:42.967Z,101.93
2022-12-20T17:34:46.457Z,79.55
2022-12-20T17:37:51.752Z,66.25
2022-12-20T17:40:57.376Z,70.53
2022-12-20T17:44:03.903Z,61.42
2022-12-20T17:47:07.731Z,62.17
2022-12-20T17:50:11.792Z,61.92
2022-12-20T17:53:15.323Z,59.53
2022-12-20T17:56:25.147Z,60.63
2022-12-20T17:59:29.342Z,99.13
2022-12-20T18:02:32.676Z,83.50
2022-12-20T18:05:36.203Z,70.22
2022-12-20T18:08:39.626Z,62.58
2022-12-20T18:11:44.970Z,72.10
2022-12-20T18:14:50.795Z,67.47
2022-12-20T18:17:54.467Z,59.80
2022-12-20T18:21:03.506Z,58.28
2022-12-20T18:24:07.447Z,56.13
2022-12-20T18:27:12.916Z,69.65
2022-12-20T18:30:16.872Z,54.00
2022-12-20T18:33:20.148Z,57.90
2022-12-20T18:36:25.117Z,56.30
2022-12-20T18:39:29.422Z,60.72
2022-12-20T18:42:34.273Z,56.00
2022-12-20T18:45:37.789Z,57.53
2022-12-20T18:48:41.689Z,75.32
2022-12-20T18:51:45.468Z,60.55
2022-12-20T18:54:48.835Z,66.60
2022-12-20T18:57:53.511Z,57.85
2022-12-20T19:01:02.048Z,60.30
2022-12-20T19:04:08.162Z,56.10
2022-12-20T19:07:13.768Z,52.90
2022-12-20T19:10:21.918Z,63.55
2022-12-20T19:13:28.828Z,62.60
2022-12-20T19:16:33.649Z,61.88
2022-12-20T19:19:37.318Z,72.25
2022-12-20T19:22:40.869Z,65.22
2022-12-20T19:25:45.724Z,66.15
2022-12-20T19:28:50.659Z,78.05
2022-12-20T19:31:57.719Z,69.95
2022-12-20T19:35:16.437Z,69.93
2022-12-20T19:38:25.352Z,60.20
2022-12-20T19:41:30.791Z,68.50
2022-12-20T19:44:36.841Z,64.25
2022-12-20T19:47:40.604Z,91.68
2022-12-20T19:50:45.953Z,80.43
2022-12-20T19:53:51.762Z,87.88
2022-12-20T19:56:55.141Z,71.70
2022-12-20T20:00:00.743Z,84.47
2022-12-20T20:03:04.293Z,78.85
2022-12-20T20:06:11.063Z,82.05
2022-12-20T20:09:18.368Z,73.25
2022-12-20T20:12:23.494Z,70.05
2022-12-20T20:15:28.409Z,87.75
2022-12-20T20:18:35.008Z,74.00
2022-12-20T20:21:38.530Z,69.85
2022-12-20T20:24:41.733Z,68.18
2022-12-20T20:27:45.455Z,79.43
2022-12-20T20:30:50.753Z,67.13
2022-12-20T20:33:55.487Z,62.70
2022-12-20T20:37:01.083Z,65.65
2022-12-20T20:40:04.950Z,59.33
2022-12-20T20:43:08.373Z,51.25
2022-12-20T20:46:15.948Z,61.72
2022-12-20T20:49:20.623Z,55.70
2022-12-20T20:52:23.981Z,57.55
2022-12-20T20:55:27.456Z,53.83
2022-12-20T20:58:31.124Z,64.68
2022-12-20T21:01:36.248Z,60.92
2022-12-20T21:04:39.890Z,60.25
2022-12-20T21:07:43.329Z,63.25
2022-12-20T21:10:46.878Z,56.92
2022-12-20T21:13:50.432Z,60.45
2022-12-20T21:16:55.464Z,72.28
2022-12-20T21:19:59.794Z,67.28
2022-12-20T21:23:03.111Z,81.05
2022-12-20T21:26:09.047Z,93.50
2022-12-20T21:29:12.690Z,118.38
2022-12-20T21:32:17.455Z,83.85
2022-12-20T21:35:21.357Z,70.40
2022-12-20T21:38:24.738Z,55.80
2022-12-20T21:41:30.603Z,55.40
2022-12-20T21:44:34.239Z,55.20
2022-12-20T21:47:39.774Z,57.90
2022-12-20T21:50:43.260Z,54.15
2022-12-20T21:53:48.850Z,55.83
2022-12-20T21:56:52.448Z,57.55
2022-12-20T21:59:55.729Z,54.88
2022-12-20T22:03:00.543Z,55.40
2022-12-20T22:06:04.153Z,56.92
2022-12-20T22:09:09.911Z,58.47
2022-12-20T22:12:13.296Z,52.85
2022-12-20T22:15:16.951Z,56.67
2022-12-20T22:18:21.890Z,53.40
2022-12-20T22:21:27.923Z,67.25
2022-12-20T22:24:31.340Z,86.30
2022-12-20T22:27:34.698Z,63.42
2022-12-20T22:30:42.151Z,52.53
2022-12-20T22:33:47.449Z,50.83
2022-12-20T22:36:50.792Z,49.58
2022-12-20T22:39:54.322Z,118.60
2022-12-20T22:42:57.599Z,56.58
2022-12-20T22:46:01.730Z,63.50
2022-12-20T22:49:06.442Z,51.63
2022-12-20T22:52:09.748Z,50.75
2022-12-20T22:55:13.229Z,51.78
2022-12-20T22:58:16.549Z,54.72
2022-12-20T23:01:21.534Z,72.05
2022-12-20T23:04:26.533Z,52.65
2022-12-20T23:07:29.867Z,53.72
2022-12-20T23:10:50.649Z,60.42
2022-12-20T23:14:11.617Z,55.35
2022-12-20T23:17:14.888Z,55.22
2022-12-20T23:20:51.272Z,55.25
2022-12-20T23:23:56.332Z,57.95
2022-12-20T23:26:59.774Z,54.17
2022-12-20T23:30:03.125Z,54.20
2022-12-20T23:33:06.406Z,53.63
2022-12-20T23:36:12.374Z,55.60
2022-12-20T23:39:15.608Z,51.90
2022-12-20T23:42:18.850Z,61.95
2022-12-20T23:45:22.085Z,52.75
2022-12-20T23:48:25.540Z,50.50
2022-12-20T23:51:30.179Z,66.30
2022-12-20T23:54:33.931Z,57.03
2022-12-20T23:57:37.587Z,55.30
